createdAt,value
2023-03-10T10:54:43.948Z,98159.33
2023-03-10T10:57:21.872Z,98161.23
2023-03-10T10:59:50.014Z,98166.73
2023-03-10T11:02:32.498Z,98175.39
2023-03-10T11:05:15.725Z,98175.65
2023-03-10T11:07:44.459Z,98175.51
2023-03-10T11:10:20.381Z,98174.11
2023-03-10T11:13:48.527Z,98170.95
2023-03-10T11:16:26.268Z,98166.05
2023-03-10T11:19:39.208Z,98163.33
2023-03-10T11:22:17.588Z,98160.25
2023-03-10T11:24:51.923Z,98153.98
2023-03-10T11:27:43.000Z,98144.38
2023-03-10T11:30:20.482Z,98136.05
2023-03-10T11:33:03.401Z,98133.98
2023-03-10T11:35:45.811Z,98134.51
2023-03-10T11:38:28.517Z,98144.93
2023-03-10T11:41:06.208Z,98149.81
2023-03-10T11:43:55.706Z,98147.50
2023-03-10T11:46:29.873Z,98150.83
2023-03-10T11:49:12.358Z,98152.84
2023-03-10T11:51:51.450Z,98165.80
2023-03-10T11:54:31.234Z,98158.63
2023-03-10T11:57:03.489Z,98148.16
2023-03-10T11:59:42.192Z,98142.23
2023-03-10T12:02:24.515Z,98131.48
2023-03-10T12:05:22.501Z,98117.02
2023-03-10T12:07:58.276Z,98102.55
2023-03-10T12:10:29.051Z,98096.39
2023-03-10T12:12:58.550Z,98103.20
2023-03-10T12:15:37.034Z,98106.45
2023-03-10T12:18:09.019Z,98106.98
2023-03-10T12:20:37.656Z,98103.41
2023-03-10T12:23:09.618Z,98105.41
2023-03-10T12:25:40.503Z,98106.79
2023-03-10T12:28:16.975Z,98111.00
2023-03-10T12:30:56.564Z,98113.39
2023-03-10T12:33:38.598Z,98116.15
2023-03-10T12:36:15.343Z,98110.08
2023-03-10T12:38:54.099Z,98109.85
2023-03-10T12:41:28.189Z,98107.30
2023-03-10T12:44:04.060Z,98106.33
2023-03-10T12:46:50.520Z,98110.42
2023-03-10T12:49:37.777Z,98108.83
2023-03-10T12:52:21.352Z,98107.22
2023-03-10T12:55:03.567Z,98109.98
2023-03-10T12:57:47.033Z,98101.46
2023-03-10T13:00:35.432Z,98092.16
2023-03-10T13:03:11.476Z,98082.83
2023-03-10T13:05:57.731Z,98082.02
2023-03-10T13:08:38.304Z,98078.23
2023-03-10T13:11:18.413Z,98065.23
2023-03-10T13:14:04.776Z,98058.27
2023-03-10T13:16:33.623Z,98055.45
2023-03-10T13:19:04.001Z,98050.42
2023-03-10T13:21:36.776Z,98044.93
2023-03-10T13:24:33.371Z,98043.42
2023-03-10T13:27:30.638Z,98035.20
2023-03-10T13:30:02.675Z,98032.95
2023-03-10T13:32:34.537Z,98025.45
2023-03-10T13:35:23.653Z,98027.42
2023-03-10T13:38:21.942Z,98022.89
2023-03-10T13:40:58.615Z,98022.77
2023-03-10T13:43:54.643Z,98023.39
2023-03-10T13:46:32.090Z,98010.71
2023-03-10T13:49:06.681Z,98000.72
2023-03-10T13:51:37.541Z,97991.33
2023-03-10T13:54:19.550Z,97987.45
2023-03-10T13:56:52.215Z,97988.34
2023-03-10T13:59:24.518Z,97986.70
2023-03-10T14:01:56.641Z,97978.23
2023-03-10T14:04:49.101Z,97986.96
2023-03-10T14:07:28.774Z,97981.98
2023-03-10T14:10:05.917Z,97977.36
2023-03-10T14:12:45.585Z,97975.98
2023-03-10T14:15:19.004Z,97974.37
2023-03-10T14:18:13.435Z,97978.29
2023-03-10T14:20:48.032Z,97981.14
2023-03-10T14:23:19.785Z,97985.68
2023-03-10T14:25:49.690Z,97982.54
2023-03-10T14:28:19.676Z,97987.36
2023-03-10T14:30:48.219Z,97991.44
2023-03-10T14:33:16.794Z,97989.40
2023-03-10T14:35:46.220Z,97986.12
2023-03-10T14:38:14.423Z,97986.04
2023-03-10T14:40:46.048Z,97979.66
2023-03-10T14:43:18.865Z,97982.36
2023-03-10T14:45:49.957Z,97984.66
2023-03-10T14:48:22.438Z,97983.70
2023-03-10T14:50:51.966Z,97977.54
2023-03-10T14:53:23.952Z,97976.48
2023-03-10T14:55:55.270Z,97971.29
2023-03-10T14:58:28.379Z,97966.98
2023-03-10T15:00:56.615Z,97971.35
2023-03-10T15:03:24.507Z,97964.59
2023-03-10T15:05:52.592Z,97964.91
2023-03-10T15:08:30.399Z,97962.42
2023-03-10T15:10:59.900Z,97965.17
2023-03-10T15:13:28.944Z,97954.70
2023-03-10T15:16:01.596Z,97952.01
2023-03-10T15:18:30.801Z,97955.89
2023-03-10T15:21:00.452Z,97954.29
2023-03-10T15:23:30.011Z,97952.88
2023-03-10T15:25:58.996Z,97956.29
2023-03-10T15:28:26.998Z,97962.98
2023-03-10T15:30:55.152Z,97967.02
2023-03-10T15:33:24.074Z,97968.11
2023-03-10T15:35:56.938Z,97975.17
2023-03-10T15:38:26.162Z,97972.78
2023-03-10T15:40:54.608Z,97974.63
2023-03-10T15:43:23.754Z,97971.81
2023-03-10T15:45:52.085Z,97976.86
2023-03-10T15:48:20.691Z,97985.88
2023-03-10T15:50:49.169Z,97987.50
2023-03-10T15:53:20.779Z,97981.45
2023-03-10T15:55:52.244Z,97984.63
2023-03-10T15:58:20.352Z,97988.65
2023-03-10T16:00:48.622Z,97986.70
2023-03-10T16:03:18.532Z,97984.57
2023-03-10T16:05:49.568Z,97983.23
2023-03-10T16:08:19.052Z,97985.48
2023-03-10T16:10:54.289Z,97986.92
2023-03-10T16:13:23.852Z,97983.54
2023-03-10T16:15:52.870Z,97985.79
2023-03-10T16:18:21.060Z,97985.64
2023-03-10T16:20:59.261Z,97985.58
2023-03-10T16:23:30.794Z,97985.42
2023-03-10T16:26:12.037Z,97982.83
2023-03-10T16:28:47.585Z,97981.05
2023-03-10T16:31:17.826Z,97978.08
2023-03-10T16:33:49.589Z,97982.02
2023-03-10T16:36:20.835Z,97984.90
2023-03-10T16:38:49.885Z,97984.69
2023-03-10T16:41:18.007Z,97987.99
2023-03-10T16:43:46.617Z,97988.85
2023-03-10T16:46:25.079Z,97996.95
2023-03-10T16:48:56.235Z,97991.11
2023-03-10T16:51:42.158Z,97997.80
2023-03-10T16:54:16.336Z,98000.23
2023-03-10T16:56:47.723Z,97993.48
2023-03-10T16:59:22.306Z,97984.09
2023-03-10T17:01:51.570Z,97987.10
2023-03-10T17:04:20.356Z,97986.23
2023-03-10T17:06:52.379Z,97997.05
2023-03-10T17:09:20.746Z,97984.52
2023-03-10T17:11:54.835Z,97992.21
2023-03-10T17:14:23.966Z,97991.34
2023-03-10T17:16:54.481Z,97991.82
2023-03-10T17:19:30.070Z,97985.88
2023-03-10T17:21:58.932Z,97987.89
2023-03-10T17:24:28.006Z,97983.17
2023-03-10T17:26:56.896Z,97985.83
2023-03-10T17:29:25.037Z,97976.95
2023-03-10T17:31:53.663Z,97981.87
2023-03-10T17:34:22.164Z,97976.77
2023-03-10T17:36:51.315Z,97985.06
2023-03-10T17:39:22.658Z,97986.42
2023-03-10T17:41:51.070Z,97983.73
2023-03-10T17:44:19.875Z,97989.23
2023-03-10T17:46:52.704Z,97986.15
2023-03-10T17:49:20.719Z,97974.92
2023-03-10T17:51:49.682Z,97973.13
2023-03-10T17:54:21.244Z,97975.65
2023-03-10T17:56:49.980Z,97976.50
2023-03-10T17:59:18.270Z,97975.58
2023-03-10T18:01:47.025Z,97970.70
2023-03-10T18:04:15.365Z,97969.00
2023-03-10T18:06:43.606Z,97968.13
2023-03-10T18:09:31.485Z,97957.35
2023-03-10T18:12:00.179Z,97957.45
2023-03-10T18:14:29.527Z,97951.81
2023-03-10T18:16:57.839Z,97953.69
2023-03-10T18:19:31.857Z,97953.35
2023-03-10T18:22:08.086Z,97952.27
2023-03-10T18:24:42.848Z,97953.61
2023-03-10T18:27:12.197Z,97950.63
2023-03-10T18:29:40.422Z,97955.80
2023-03-10T18:32:08.738Z,97950.59
2023-03-10T18:34:40.561Z,97949.84
2023-03-10T18:37:08.766Z,97943.36
2023-03-10T18:39:40.937Z,97942.25
2023-03-10T18:42:09.188Z,97934.88
2023-03-10T18:44:39.167Z,97932.30
2023-03-10T18:47:07.685Z,97940.39
2023-03-10T18:49:36.054Z,97933.84
2023-03-10T18:52:04.695Z,97937.83
2023-03-10T18:54:32.984Z,97927.48
2023-03-10T18:57:01.849Z,97922.79
2023-03-10T18:59:30.120Z,97921.65
2023-03-10T19:01:59.290Z,97927.23
2023-03-10T19:04:27.561Z,97911.22
2023-03-10T19:06:55.697Z,97905.00
2023-03-10T19:09:29.322Z,97909.06
2023-03-10T19:11:57.375Z,97899.38
2023-03-10T19:14:26.325Z,97899.36
2023-03-10T19:16:54.801Z,97898.05
2023-03-10T19:19:28.604Z,97900.74
2023-03-10T19:21:57.067Z,97888.85
2023-03-10T19:24:25.476Z,97895.59
2023-03-10T19:26:53.840Z,97890.05
2023-03-10T19:29:21.965Z,97883.27
2023-03-10T19:31:56.479Z,97878.38
2023-03-10T19:34:26.112Z,97883.27
2023-03-10T19:36:54.650Z,97869.46
2023-03-10T19:39:23.838Z,97862.66
2023-03-10T19:41:52.297Z,97864.15
2023-03-10T19:44:21.897Z,97862.06
2023-03-10T19:46:50.007Z,97854.90
2023-03-10T19:49:19.245Z,97855.98
2023-03-10T19:51:47.475Z,97850.94
2023-03-10T19:54:15.397Z,97847.33
2023-03-10T19:56:44.703Z,97845.52
2023-03-10T19:59:12.719Z,97850.34
2023-03-10T20:01:49.011Z,97843.75
2023-03-10T20:04:17.956Z,97855.45
2023-03-10T20:06:47.085Z,97855.52
2023-03-10T20:09:19.006Z,97849.13
2023-03-10T20:11:47.021Z,97846.51
2023-03-10T20:14:15.024Z,97840.23
2023-03-10T20:16:43.411Z,97843.39
2023-03-10T20:19:12.093Z,97844.23
2023-03-10T20:21:41.653Z,97840.30
2023-03-10T20:24:09.782Z,97836.40
2023-03-10T20:26:39.481Z,97835.05
2023-03-10T20:29:12.201Z,97837.83
2023-03-10T20:31:40.841Z,97831.35
2023-03-10T20:34:17.390Z,97832.75
2023-03-10T20:36:45.697Z,97833.45
2023-03-10T20:39:17.236Z,97832.76
2023-03-10T20:41:46.400Z,97829.24
2023-03-10T20:44:15.020Z,97826.49
2023-03-10T20:46:43.887Z,97827.80
2023-03-10T20:49:13.188Z,97822.97
2023-03-10T20:51:41.749Z,97830.23
2023-03-10T20:54:10.542Z,97825.55
2023-03-10T20:56:39.477Z,97817.02
2023-03-10T20:59:07.908Z,97816.39
2023-03-10T21:01:39.886Z,97810.55
2023-03-10T21:04:08.765Z,97809.09
2023-03-10T21:06:37.446Z,97814.26
2023-03-10T21:09:07.464Z,97813.44
2023-03-10T21:11:35.842Z,97806.65
2023-03-10T21:14:04.497Z,97802.89
2023-03-10T21:16:36.762Z,97804.95
2023-03-10T21:19:13.670Z,97808.71
2023-03-10T21:21:42.814Z,97800.88
2023-03-10T21:24:11.223Z,97792.55
2023-03-10T21:26:39.242Z,97791.26
2023-03-10T21:29:08.475Z,97788.85
2023-03-10T21:31:41.255Z,97792.02
2023-03-10T21:34:09.441Z,97785.56
2023-03-10T21:36:37.708Z,97783.06
2023-03-10T21:39:08.988Z,97784.84
2023-03-10T21:41:37.532Z,97778.31
2023-03-10T21:44:07.648Z,97779.69
2023-03-10T21:46:37.099Z,97770.73
2023-03-10T21:49:05.661Z,97770.64
2023-03-10T21:51:36.066Z,97771.66
2023-03-10T21:54:04.955Z,97768.44
2023-03-10T21:56:34.188Z,97768.95
2023-03-10T21:59:03.569Z,97764.41
2023-03-10T22:01:36.758Z,97761.92
2023-03-10T22:04:05.190Z,97756.27
2023-03-10T22:06:33.836Z,97753.25
2023-03-10T22:09:01.821Z,97748.63
2023-03-10T22:11:30.463Z,97740.59
2023-03-10T22:13:59.762Z,97753.14
2023-03-10T22:16:27.924Z,97744.60
2023-03-10T22:18:57.024Z,97747.89
2023-03-10T22:21:25.618Z,97743.22
2023-03-10T22:23:53.972Z,97738.89
2023-03-10T22:26:22.245Z,97744.16
2023-03-10T22:28:50.480Z,97733.64
2023-03-10T22:31:19.376Z,97734.63
2023-03-10T22:33:47.977Z,97736.02
2023-03-10T22:36:15.962Z,97735.77
2023-03-10T22:38:45.468Z,97730.81
2023-03-10T22:41:13.855Z,97735.44
2023-03-10T22:43:44.231Z,97733.34
2023-03-10T22:46:16.472Z,97724.67
2023-03-10T22:48:44.882Z,97722.00
2023-03-10T22:51:16.037Z,97720.10
2023-03-10T22:53:47.036Z,97723.95
2023-03-10T22:56:15.067Z,97725.98
2023-03-10T22:58:43.371Z,97728.08
2023-03-10T23:01:11.438Z,97726.98
2023-03-10T23:03:41.485Z,97721.77
2023-03-10T23:06:14.040Z,97712.21
2023-03-10T23:08:46.787Z,97714.05
2023-03-10T23:11:15.773Z,97718.20
2023-03-10T23:13:45.157Z,97712.98
2023-03-10T23:16:18.286Z,97708.42
2023-03-10T23:18:46.877Z,97708.08
2023-03-10T23:21:15.376Z,97710.40
2023-03-10T23:23:44.059Z,97704.17
2023-03-10T23:26:12.489Z,97695.80
2023-03-10T23:28:42.509Z,97695.37
2023-03-10T23:31:15.447Z,97694.73
2023-03-10T23:33:44.851Z,97699.93
2023-03-10T23:36:13.688Z,97694.67
2023-03-10T23:38:42.996Z,97694.14
2023-03-10T23:41:11.538Z,97690.08
2023-03-10T23:43:39.834Z,97688.27
2023-03-10T23:46:10.321Z,97683.45
2023-03-10T23:48:38.278Z,97681.66
2023-03-10T23:51:12.992Z,97678.02
2023-03-10T23:53:43.863Z,97673.27
2023-03-10T23:56:12.347Z,97675.21
2023-03-10T23:58:41.021Z,97663.40
